Blackhead, Ireland
Current Conditions -  °F | °C
As of 12:30 AM on Monday 24 Nov 2014 (Local Time) from EINN Reporting Station
Few Clouds Few Clouds  
Wind Chill: 34°   Ceiling: Unl
Heat Index: 37°   Visibility: 6mi
Dew Point: 34°   Wind: 5mph
Humidity: 87%   Direction: 120°ESE
Pressure: 30.21"   Gusts: NA
Location:  53.17°N, 9.33°W
Report Text: EINN 240030Z 12004KT 9999 FEW040 03/01 Q1023 NOSIG
Loading
Personal Weather Stations






























Interactive Weather Map New forecast layout! Learn more

10-Day Weather Forecast

Advertisements
Track Severe Weather on mobile